Terminal Aerodrome Forecast
Issued by NWS

Home | Current Version | Previous Version | Text Only | Print | Product List | Glossary On
Versions: 1 2 3 4 5 6 7 8 9 10 11 12 13 14 15 16 17 18 19 20 21
000
FTUS45 KBOU 260033 AAA
TAFBJC
TAF AMD
KBJC 260033Z 2601/2624 27006KT P6SM -SHRA SCT010 BKN015
     FM260200 32006KT P6SM VCSH SCT020 BKN060
     FM260500 31009KT P6SM SCT080 BKN120
     FM261200 36010KT P6SM BKN025 OVC090
     FM262000 04010KT P6SM VCSH BKN050 OVC070
      TEMPO 2621/2624 VRB15G25KT 5SM TSRA BKN030CB=

USA.gov is the U.S. government's official web portal to all federal, state and local government web resources and services.